createdAt,value
2022-12-14T00:01:25.147Z,100783.25
2022-12-14T00:03:52.683Z,100783.25
2022-12-14T00:06:25.512Z,100778.16
2022-12-14T00:08:53.799Z,100773.06
2022-12-14T00:11:22.358Z,100769.91
2022-12-14T00:13:56.892Z,100768.91
2022-12-14T00:16:24.434Z,100766.34
2022-12-14T00:18:52.975Z,100762.84
2022-12-14T00:21:20.450Z,100767.94
2022-12-14T00:23:48.855Z,100766.34
2022-12-14T00:26:18.125Z,100759.50
2022-12-14T00:28:46.199Z,100758.09
2022-12-14T00:31:12.900Z,100751.03
2022-12-14T00:33:40.056Z,100754.19
2022-12-14T00:36:08.949Z,100762.66
2022-12-14T00:38:36.183Z,100755.97
2022-12-14T00:41:03.023Z,100743.38
2022-12-14T00:43:29.664Z,100745.94
2022-12-14T00:45:56.549Z,100748.31
2022-12-14T00:48:25.311Z,100741.66
2022-12-14T00:50:53.955Z,100738.88
2022-12-14T00:53:20.707Z,100733.78
2022-12-14T00:55:49.099Z,100737.16
2022-12-14T00:58:19.372Z,100726.34
2022-12-14T01:00:47.370Z,100728.09
2022-12-14T01:03:14.465Z,100718.88
2022-12-14T01:05:41.381Z,100717.28
2022-12-14T01:08:08.621Z,100706.47
2022-12-14T01:10:39.531Z,100713.53
2022-12-14T01:13:06.428Z,100712.94
2022-12-14T01:15:35.696Z,100703.13
2022-12-14T01:18:02.287Z,100699.00
2022-12-14T01:20:28.716Z,100706.03
2022-12-14T01:22:58.467Z,100705.28
2022-12-14T01:25:25.746Z,100701.34
2022-12-14T01:27:53.219Z,100704.84
2022-12-14T01:30:19.819Z,100708.41
2022-12-14T01:32:47.276Z,100700.16
2022-12-14T01:35:14.330Z,100697.00
2022-12-14T01:37:40.719Z,100698.94
2022-12-14T01:40:07.766Z,100706.59
2022-12-14T01:42:36.486Z,100708.53
2022-12-14T01:45:04.045Z,100706.97
2022-12-14T01:47:42.824Z,100703.41
2022-12-14T01:50:37.108Z,100709.50
2022-12-14T01:53:08.617Z,100701.44
2022-12-14T01:55:42.906Z,100697.94
2022-12-14T01:58:21.156Z,100692.03
2022-12-14T02:00:48.629Z,100698.31
2022-12-14T02:03:24.865Z,100690.06
2022-12-14T02:05:56.940Z,100686.72
2022-12-14T02:08:24.626Z,100685.53
2022-12-14T02:10:53.236Z,100681.38
2022-12-14T02:13:25.541Z,100681.59
2022-12-14T02:15:52.622Z,100681.00
2022-12-14T02:18:26.736Z,100684.50
2022-12-14T02:21:27.745Z,100672.94
2022-12-14T02:24:31.066Z,100671.56
2022-12-14T02:27:19.504Z,100674.28
2022-12-14T02:29:45.855Z,100681.34
2022-12-14T02:32:27.463Z,100680.53
2022-12-14T02:35:13.240Z,100671.50
2022-12-14T02:38:13.591Z,100666.59
2022-12-14T02:40:49.206Z,100661.09
2022-12-14T02:43:30.535Z,100669.53
2022-12-14T02:46:15.617Z,100658.91
2022-12-14T02:48:51.663Z,100662.44
2022-12-14T02:51:23.937Z,100654.19
2022-12-14T02:54:00.842Z,100655.34
2022-12-14T02:56:38.518Z,100657.28
2022-12-14T02:59:08.706Z,100652.59
2022-12-14T03:01:38.234Z,100653.72
2022-12-14T03:04:06.006Z,100642.31
2022-12-14T03:06:32.451Z,100643.69
2022-12-14T03:09:14.688Z,100647.41
2022-12-14T03:11:51.337Z,100635.22
2022-12-14T03:14:25.236Z,100642.44
2022-12-14T03:16:53.473Z,100631.47
2022-12-14T03:19:30.827Z,100629.28
2022-12-14T03:22:07.538Z,100623.97
2022-12-14T03:24:41.827Z,100622.38
2022-12-14T03:27:17.175Z,100616.88
2022-12-14T03:29:52.321Z,100619.03
2022-12-14T03:32:23.192Z,100608.22
2022-12-14T03:34:55.818Z,100602.53
2022-12-14T03:37:41.873Z,100594.31
2022-12-14T03:40:12.522Z,100592.72
2022-12-14T03:42:58.634Z,100600.72
2022-12-14T03:45:48.821Z,100597.00
2022-12-14T03:48:24.311Z,100595.41
2022-12-14T03:51:00.453Z,100597.16
2022-12-14T03:53:51.272Z,100591.66
2022-12-14T03:56:34.612Z,100589.84
2022-12-14T03:59:15.452Z,100589.00
2022-12-14T04:01:55.788Z,100593.88
2022-12-14T04:04:46.120Z,100598.34
2022-12-14T04:07:19.797Z,100579.31
2022-12-14T04:09:56.438Z,100581.28
2022-12-14T04:12:51.613Z,100579.06
2022-12-14T04:15:44.263Z,100586.50
2022-12-14T04:18:35.092Z,100571.38
2022-12-14T04:21:36.165Z,100576.81
2022-12-14T04:24:28.391Z,100566.75
2022-12-14T04:27:30.609Z,100559.88
2022-12-14T04:29:59.267Z,100556.09
2022-12-14T04:32:40.207Z,100556.28
2022-12-14T04:35:20.631Z,100558.41
2022-12-14T04:38:13.337Z,100559.56
2022-12-14T04:40:48.026Z,100561.31
2022-12-14T04:43:20.152Z,100554.03
2022-12-14T04:45:56.936Z,100555.19
2022-12-14T04:48:31.783Z,100545.81
2022-12-14T04:51:07.871Z,100547.38
2022-12-14T04:53:37.219Z,100544.84
2022-12-14T04:56:12.428Z,100541.16
2022-12-14T04:58:40.887Z,100546.59
2022-12-14T05:01:16.536Z,100549.94
2022-12-14T05:03:58.435Z,100538.78
2022-12-14T05:06:35.167Z,100536.06
2022-12-14T05:09:25.095Z,100536.06
2022-12-14T05:12:23.476Z,100535.88
2022-12-14T05:14:58.051Z,100531.16
2022-12-14T05:17:24.554Z,100535.47
2022-12-14T05:19:51.144Z,100537.22
2022-12-14T05:22:18.157Z,100531.53
2022-12-14T05:24:44.520Z,100532.31
2022-12-14T05:27:11.001Z,100528.19
2022-12-14T05:29:37.589Z,100525.84
2022-12-14T05:32:04.508Z,100523.28
2022-12-14T05:34:31.156Z,100521.72
2022-12-14T05:36:58.173Z,100526.19
2022-12-14T05:39:24.636Z,100521.09
2022-12-14T05:41:51.165Z,100518.94
2022-12-14T05:44:17.619Z,100531.66
2022-12-14T05:46:44.067Z,100531.81
2022-12-14T05:49:10.715Z,100528.50
2022-12-14T05:51:37.379Z,100529.44
2022-12-14T05:54:04.014Z,100525.69
2022-12-14T05:56:30.403Z,100524.75
2022-12-14T05:58:57.148Z,100525.69
2022-12-14T06:01:23.931Z,100523.16
2022-12-14T06:03:53.674Z,100522.56
2022-12-14T06:06:21.170Z,100509.22
2022-12-14T06:08:48.215Z,100506.69
2022-12-14T06:11:22.747Z,100506.88
2022-12-14T06:13:49.546Z,100504.53
2022-12-14T06:16:26.796Z,100500.75
2022-12-14T06:18:56.023Z,100501.91
2022-12-14T06:21:26.042Z,100510.06
2022-12-14T06:23:53.877Z,100498.88
2022-12-14T06:26:20.605Z,100503.34
2022-12-14T06:28:47.144Z,100498.03
2022-12-14T06:31:22.742Z,100504.22
2022-12-14T06:33:49.284Z,100500.66
2022-12-14T06:36:27.028Z,100504.16
2022-12-14T06:38:55.497Z,100500.56
2022-12-14T06:41:23.940Z,100497.59
2022-12-14T06:43:51.204Z,100506.38
2022-12-14T06:46:21.001Z,100502.44
2022-12-14T06:48:54.713Z,100507.25
2022-12-14T06:51:22.950Z,100500.16
2022-12-14T06:53:54.487Z,100503.84
2022-12-14T06:56:22.986Z,100508.50
2022-12-14T06:58:49.800Z,100513.13
2022-12-14T07:01:18.512Z,100507.63
2022-12-14T07:03:50.581Z,100518.13
2022-12-14T07:06:17.664Z,100519.09
2022-12-14T07:08:44.353Z,100518.47
2022-12-14T07:11:12.944Z,100520.75
2022-12-14T07:13:40.292Z,100521.72
2022-12-14T07:16:10.268Z,100518.38
2022-12-14T07:18:36.855Z,100527.75
2022-12-14T07:21:06.997Z,100524.78
2022-12-14T07:23:35.558Z,100527.16
2022-12-14T07:26:05.092Z,100522.25
2022-12-14T07:28:31.942Z,100521.47
2022-12-14T07:30:59.880Z,100521.63
2022-12-14T07:33:27.815Z,100531.94
2022-12-14T07:36:05.840Z,100528.19
2022-12-14T07:38:34.095Z,100514.25
2022-12-14T07:41:15.510Z,100526.16
2022-12-14T07:43:45.963Z,100530.63
2022-12-14T07:46:23.355Z,100535.09
2022-12-14T07:48:52.468Z,100529.56
2022-12-14T07:51:25.335Z,100525.81
2022-12-14T07:53:52.346Z,100523.78
2022-12-14T07:56:22.005Z,100530.94
2022-12-14T07:58:49.398Z,100531.91
2022-12-14T08:01:22.308Z,100538.28
2022-12-14T08:03:54.554Z,100534.97
2022-12-14T08:06:23.273Z,100537.66
2022-12-14T08:08:50.205Z,100538.97
2022-12-14T08:11:17.328Z,100533.28
2022-12-14T08:13:44.602Z,100546.94
2022-12-14T08:16:13.554Z,100533.63
2022-12-14T08:18:40.871Z,100533.44
2022-12-14T08:21:08.879Z,100535.19
2022-12-14T08:23:37.687Z,100546.31
2022-12-14T08:26:06.451Z,100540.25
2022-12-14T08:28:35.066Z,100545.34
2022-12-14T08:31:19.121Z,100545.97
2022-12-14T08:33:47.268Z,100547.38
2022-12-14T08:36:16.252Z,100548.25
2022-12-14T08:38:43.113Z,100552.66
2022-12-14T08:41:11.801Z,100556.88
2022-12-14T08:43:38.999Z,100556.34
2022-12-14T08:46:05.969Z,100555.66
2022-12-14T08:48:32.643Z,100558.09
2022-12-14T08:51:08.361Z,100559.16
2022-12-14T08:53:36.516Z,100558.75
2022-12-14T08:56:08.347Z,100556.13
2022-12-14T08:58:35.217Z,100547.81
2022-12-14T09:01:16.647Z,100553.13
2022-12-14T09:03:44.906Z,100552.25
2022-12-14T09:06:13.971Z,100546.66
2022-12-14T09:08:40.824Z,100558.06
2022-12-14T09:11:10.368Z,100554.19
2022-12-14T09:13:36.829Z,100551.09
2022-12-14T09:16:08.002Z,100555.91
2022-12-14T09:18:34.791Z,100548.78
2022-12-14T09:21:01.846Z,100544.56
2022-12-14T09:23:30.576Z,100551.13
2022-12-14T09:26:04.853Z,100543.16
2022-12-14T09:28:32.739Z,100560.22
2022-12-14T09:31:02.056Z,100555.38
2022-12-14T09:33:29.977Z,100558.78
2022-12-14T09:36:05.963Z,100563.31
2022-12-14T09:38:34.140Z,100565.91
2022-12-14T09:41:07.088Z,100562.03
2022-12-14T09:43:37.862Z,100560.53
2022-12-14T09:46:17.488Z,100566.63
2022-12-14T09:48:44.697Z,100564.53
2022-12-14T09:51:18.555Z,100563.16
2022-12-14T09:53:50.218Z,100565.94
2022-12-14T09:56:19.203Z,100563.47
2022-12-14T09:58:55.103Z,100567.44
2022-12-14T10:01:24.550Z,100558.09
2022-12-14T10:04:03.601Z,100560.50
2022-12-14T10:06:44.791Z,100562.66
2022-12-14T10:09:28.178Z,100558.41
2022-12-14T10:12:22.195Z,100558.44
2022-12-14T10:15:33.752Z,100561.22
2022-12-14T10:18:57.785Z,100559.69
2022-12-14T10:21:24.019Z,100547.16
2022-12-14T10:23:56.643Z,100548.97
2022-12-14T10:26:30.252Z,100546.66
2022-12-14T10:29:21.651Z,100543.53
2022-12-14T10:31:57.776Z,100540.22
2022-12-14T10:34:29.218Z,100529.50
2022-12-14T10:37:08.871Z,100529.50
2022-12-14T10:39:49.413Z,100533.06
2022-12-14T10:42:23.935Z,100542.66
2022-12-14T10:45:39.005Z,100536.03
2022-12-14T10:47:57.589Z,100529.16
2022-12-14T10:50:52.293Z,100523.31
2022-12-14T10:53:25.762Z,100529.22
2022-12-14T10:55:56.684Z,100526.84
2022-12-14T10:58:23.375Z,100513.34
2022-12-14T11:00:54.573Z,100513.38
2022-12-14T11:03:21.761Z,100513.56
2022-12-14T11:06:18.866Z,100513.56
2022-12-14T11:08:48.793Z,100510.84
2022-12-14T11:11:20.834Z,100510.44
2022-12-14T11:14:06.137Z,100517.09
2022-12-14T11:16:41.000Z,100510.03
2022-12-14T11:19:22.487Z,100514.38
2022-12-14T11:21:51.765Z,100508.47
2022-12-14T11:24:27.148Z,100509.22
2022-12-14T11:26:58.211Z,100515.13
2022-12-14T11:29:32.523Z,100512.34
2022-12-14T11:32:00.463Z,100503.69
2022-12-14T11:34:34.447Z,100503.66
2022-12-14T11:37:22.310Z,100514.25
2022-12-14T11:40:25.332Z,100515.81
2022-12-14T11:43:00.478Z,100514.81
2022-12-14T11:45:29.148Z,100506.13
2022-12-14T11:48:14.254Z,100504.31
2022-12-14T11:50:42.567Z,100501.94
2022-12-14T11:53:12.048Z,100508.59
2022-12-14T11:55:43.645Z,100509.34
2022-12-14T11:58:20.650Z,100504.97
2022-12-14T12:00:51.506Z,100494.91
2022-12-14T12:03:29.028Z,100495.47
2022-12-14T12:06:02.038Z,100500.72
2022-12-14T12:08:32.088Z,100502.13
2022-12-14T12:11:06.059Z,100499.69
2022-12-14T12:13:38.356Z,100502.19
2022-12-14T12:16:14.766Z,100512.03
2022-12-14T12:19:11.720Z,100507.50
2022-12-14T12:21:44.716Z,100504.31
2022-12-14T12:24:27.120Z,100503.28
2022-12-14T12:26:56.832Z,100510.13
2022-12-14T12:29:44.302Z,100500.81
2022-12-14T12:32:17.234Z,100502.53
2022-12-14T12:34:49.579Z,100512.16
2022-12-14T12:37:28.467Z,100507.97
2022-12-14T12:40:02.502Z,100507.69
2022-12-14T12:42:31.808Z,100512.22
2022-12-14T12:45:14.181Z,100515.75
2022-12-14T12:47:47.942Z,100508.66
2022-12-14T12:50:21.582Z,100518.81
2022-12-14T12:53:03.635Z,100518.41
2022-12-14T12:55:34.355Z,100521.09
2022-12-14T12:58:03.023Z,100524.59
2022-12-14T13:00:30.588Z,100528.88
2022-12-14T13:03:02.362Z,100526.91
2022-12-14T13:05:46.359Z,100519.78
2022-12-14T13:08:28.714Z,100517.00
2022-12-14T13:13:56.487Z,100520.50
2022-12-14T13:16:31.021Z,100525.63
2022-12-14T13:19:55.704Z,100525.63
2022-12-14T13:22:31.379Z,100526.47
2022-12-14T13:25:06.494Z,100526.47
2022-12-14T13:27:51.445Z,100523.34
2022-12-14T13:30:49.928Z,100530.47
2022-12-14T13:33:28.510Z,100519.06
2022-12-14T13:36:19.454Z,100527.75
2022-12-14T13:39:18.964Z,100520.06
2022-12-14T13:41:54.130Z,100528.19
2022-12-14T13:44:35.729Z,100530.16
2022-12-14T13:47:15.514Z,100526.66
2022-12-14T13:50:34.240Z,100529.88
2022-12-14T13:52:46.641Z,100525.94
2022-12-14T13:55:37.671Z,100527.34
2022-12-14T13:58:21.277Z,100528.75
2022-12-14T14:00:52.487Z,100520.50
2022-12-14T14:03:37.349Z,100523.72
2022-12-14T14:06:12.981Z,100513.88
2022-12-14T14:08:44.496Z,100519.44
2022-12-14T14:11:38.939Z,100521.03
2022-12-14T14:14:28.755Z,100524.66
2022-12-14T14:17:02.538Z,100524.28
2022-12-14T14:19:37.315Z,100522.13
2022-12-14T14:22:26.067Z,100535.00
2022-12-14T14:24:56.272Z,100533.84
2022-12-14T14:27:35.204Z,100536.81
2022-12-14T14:30:04.792Z,100535.25
2022-12-14T14:32:40.869Z,100531.53
2022-12-14T14:35:22.653Z,100533.13
2022-12-14T14:38:01.664Z,100548.13
2022-12-14T14:41:15.252Z,100543.63
2022-12-14T14:43:41.453Z,100547.78
2022-12-14T14:46:19.186Z,100547.41
2022-12-14T14:48:54.570Z,100549.38
2022-12-14T14:51:26.311Z,100549.00
2022-12-14T14:54:53.976Z,100553.38
2022-12-14T14:57:34.124Z,100555.34
2022-12-14T15:00:02.580Z,100555.19
2022-12-14T15:02:41.109Z,100552.25
2022-12-14T15:08:33.373Z,100557.06
2022-12-14T15:11:05.330Z,100565.72
2022-12-14T15:13:48.706Z,100562.59
2022-12-14T15:16:24.198Z,100566.38
2022-12-14T15:18:50.928Z,100576.56
2022-12-14T15:21:19.069Z,100572.25
2022-12-14T15:23:49.272Z,100585.06
2022-12-14T15:26:21.083Z,100581.13
2022-12-14T15:28:50.451Z,100584.28
2022-12-14T15:31:18.534Z,100585.44
2022-12-14T15:33:47.919Z,100591.69
2022-12-14T15:36:18.125Z,100589.56
2022-12-14T15:38:55.743Z,100590.34
2022-12-14T15:41:24.760Z,100592.84
2022-12-14T15:43:55.115Z,100582.25
2022-12-14T15:46:29.831Z,100597.16
2022-12-14T15:49:04.560Z,100583.81
2022-12-14T15:51:35.595Z,100589.28
2022-12-14T15:54:04.607Z,100589.28
2022-12-14T15:57:00.748Z,100593.75
2022-12-14T15:59:31.633Z,100592.38
2022-12-14T16:02:21.079Z,100593.50
2022-12-14T16:04:47.910Z,100591.13
2022-12-14T16:07:25.169Z,100599.16
2022-12-14T16:09:58.709Z,100599.31
2022-12-14T16:12:39.573Z,100608.69
2022-12-14T16:15:18.086Z,100608.84
2022-12-14T16:17:45.205Z,100605.47
2022-12-14T16:20:21.319Z,100607.00
2022-12-14T16:23:19.863Z,100608.38
2022-12-14T16:25:52.231Z,100615.75
2022-12-14T16:28:38.901Z,100616.69
2022-12-14T16:31:19.549Z,100621.56
2022-12-14T16:33:50.523Z,100620.97
2022-12-14T16:36:19.976Z,100616.22
2022-12-14T16:39:01.575Z,100615.03
2022-12-14T16:41:40.140Z,100618.31
2022-12-14T16:44:18.703Z,100620.44
2022-12-14T16:47:03.235Z,100626.25
2022-12-14T16:49:35.549Z,100627.78
2022-12-14T16:52:14.195Z,100624.41
2022-12-14T16:54:41.065Z,100626.09
2022-12-14T16:57:13.265Z,100631.19
2022-12-14T16:59:42.890Z,100627.44
2022-12-14T17:02:28.268Z,100626.66
2022-12-14T17:04:55.880Z,100620.16
2022-12-14T17:07:27.961Z,100629.91
2022-12-14T17:09:56.517Z,100624.81
2022-12-14T17:12:25.221Z,100623.94
2022-12-14T17:14:52.226Z,100622.34
2022-12-14T17:17:31.919Z,100623.34
2022-12-14T17:19:58.390Z,100628.75
2022-12-14T17:22:29.262Z,100628.38
2022-12-14T17:24:55.872Z,100635.56
2022-12-14T17:27:22.425Z,100631.78
2022-12-14T17:29:49.675Z,100625.31
2022-12-14T17:32:17.363Z,100625.84
2022-12-14T17:34:45.458Z,100624.63
2022-12-14T17:37:16.799Z,100628.50
2022-12-14T17:39:43.289Z,100628.06
2022-12-14T17:42:15.875Z,100622.72
2022-12-14T17:44:48.311Z,100625.44
2022-12-14T17:47:14.747Z,100626.94
2022-12-14T17:49:42.262Z,100628.09
2022-12-14T17:52:18.215Z,100631.63
2022-12-14T17:54:44.711Z,100633.88
2022-12-14T17:57:20.249Z,100634.22
2022-12-14T17:59:47.976Z,100626.97
2022-12-14T18:02:30.267Z,100632.59
2022-12-14T18:04:56.873Z,100627.06
2022-12-14T18:07:23.465Z,100632.31
2022-12-14T18:09:52.934Z,100633.91
2022-12-14T18:12:23.876Z,100634.06
2022-12-14T18:14:50.895Z,100643.47
2022-12-14T18:17:18.750Z,100637.56
2022-12-14T18:19:45.211Z,100644.13
2022-12-14T18:22:14.661Z,100645.28
2022-12-14T18:24:41.148Z,100651.50
2022-12-14T18:27:07.519Z,100652.66
2022-12-14T18:29:33.967Z,100650.28
2022-12-14T18:32:00.514Z,100646.69
2022-12-14T18:34:27.039Z,100647.81
2022-12-14T18:36:53.606Z,100645.44
2022-12-14T18:39:20.088Z,100646.75
2022-12-14T18:41:46.596Z,100654.38
2022-12-14T18:44:13.097Z,100652.16
2022-12-14T18:46:39.644Z,100647.44
2022-12-14T18:49:06.801Z,100652.69
2022-12-14T18:51:33.390Z,100652.44
2022-12-14T18:54:00.421Z,100653.56
2022-12-14T18:56:28.249Z,100648.84
2022-12-14T18:58:56.150Z,100652.50
2022-12-14T19:01:25.021Z,100657.41
2022-12-14T19:03:52.160Z,100657.75
2022-12-14T19:09:08.215Z,100657.63
2022-12-14T19:11:44.435Z,100663.84
2022-12-14T19:14:11.728Z,100660.69
2022-12-14T19:16:38.305Z,100657.91
2022-12-14T19:19:04.876Z,100657.28
2022-12-14T19:21:31.540Z,100677.59
2022-12-14T19:23:59.727Z,100670.75
2022-12-14T19:26:28.269Z,100673.28
2022-12-14T19:28:54.904Z,100671.69
2022-12-14T19:31:21.451Z,100674.59
2022-12-14T19:33:48.030Z,100676.97
2022-12-14T19:36:14.459Z,100681.41
2022-12-14T19:38:40.945Z,100677.66
2022-12-14T19:41:10.824Z,100678.44
2022-12-14T19:43:38.256Z,100675.28
2022-12-14T19:46:09.008Z,100680.66
2022-12-14T19:48:35.717Z,100680.84
2022-12-14T19:51:10.565Z,100687.50
2022-12-14T19:53:37.753Z,100690.34
2022-12-14T19:56:04.789Z,100693.09
2022-12-14T19:58:31.735Z,100687.41
2022-12-14T20:00:58.164Z,100695.94
2022-12-14T20:03:24.858Z,100692.00
2022-12-14T20:05:59.391Z,100696.31
2022-12-14T20:08:27.935Z,100695.50
2022-12-14T20:10:54.703Z,100707.22
2022-12-14T20:13:27.758Z,100704.69
2022-12-14T20:15:59.539Z,100714.84
2022-12-14T20:18:26.924Z,100712.94
2022-12-14T20:20:59.820Z,100714.50
2022-12-14T20:23:26.288Z,100725.25
2022-12-14T20:25:52.777Z,100723.19
2022-12-14T20:28:19.203Z,100729.69
2022-12-14T20:30:47.347Z,100722.19
2022-12-14T20:33:14.003Z,100725.19
2022-12-14T20:35:40.481Z,100728.78
2022-12-14T20:38:06.923Z,100723.69
2022-12-14T20:40:37.968Z,100727.66
2022-12-14T20:43:05.166Z,100727.66
2022-12-14T20:45:31.618Z,100732.75
2022-12-14T20:47:58.126Z,100731.16
2022-12-14T20:50:24.627Z,100728.00
2022-12-14T20:52:51.054Z,100735.28
2022-12-14T20:55:17.566Z,100742.09
2022-12-14T20:57:43.938Z,100745.84
2022-12-14T21:00:10.850Z,100741.59
2022-12-14T21:02:37.460Z,100736.00
2022-12-14T21:05:04.264Z,100742.47
2022-12-14T21:07:32.572Z,100748.00
2022-12-14T21:09:59.012Z,100746.88
2022-12-14T21:12:25.796Z,100745.94
2022-12-14T21:14:54.671Z,100752.88
2022-12-14T21:17:23.640Z,100753.50
2022-12-14T21:19:50.655Z,100749.66
2022-12-14T21:22:20.136Z,100750.72
2022-12-14T21:25:04.738Z,100748.19
2022-12-14T21:27:33.589Z,100747.81
2022-12-14T21:30:00.506Z,100750.03
2022-12-14T21:32:27.820Z,100745.56
2022-12-14T21:34:54.229Z,100748.72
2022-12-14T21:37:20.830Z,100734.63
2022-12-14T21:39:53.972Z,100736.19
2022-12-14T21:42:23.247Z,100742.88
2022-12-14T21:44:51.123Z,100756.19
2022-12-14T21:47:21.090Z,100758.53
2022-12-14T21:49:48.002Z,100760.91
2022-12-14T21:52:20.662Z,100759.50
2022-12-14T21:54:47.146Z,100761.25
2022-12-14T21:57:34.687Z,100761.25
2022-12-14T22:00:01.490Z,100768.25
2022-12-14T22:02:28.764Z,100758.09
2022-12-14T22:04:58.092Z,100768.59
2022-12-14T22:07:30.296Z,100775.94
2022-12-14T22:09:56.701Z,100767.72
2022-12-14T22:12:23.227Z,100773.91
2022-12-14T22:14:50.273Z,100775.38
2022-12-14T22:17:17.040Z,100767.13
2022-12-14T22:19:43.451Z,100768.44
2022-12-14T22:22:14.853Z,100776.50
2022-12-14T22:24:41.438Z,100769.41
2022-12-14T22:27:09.934Z,100774.81
2022-12-14T22:29:36.468Z,100778.94
2022-12-14T22:32:03.010Z,100775.78
2022-12-14T22:34:29.458Z,100775.47
2022-12-14T22:36:56.177Z,100788.38
2022-12-14T22:39:22.604Z,100789.47
2022-12-14T22:41:49.372Z,100793.44
2022-12-14T22:44:17.071Z,100791.06
2022-12-14T22:46:43.581Z,100800.59
2022-12-14T22:49:15.146Z,100800.44
2022-12-14T22:51:41.527Z,100804.88
2022-12-14T22:54:08.090Z,100808.53
2022-12-14T22:56:42.121Z,100808.69
2022-12-14T22:59:15.867Z,100800.47
2022-12-14T23:01:43.658Z,100793.97
2022-12-14T23:04:16.506Z,100790.81
2022-12-14T23:06:43.348Z,100786.09
2022-12-14T23:09:28.390Z,100793.09
2022-12-14T23:12:13.459Z,100803.22
2022-12-14T23:14:59.135Z,100810.22
2022-12-14T23:17:44.002Z,100803.41
2022-12-14T23:20:29.302Z,100799.44
2022-12-14T23:23:14.082Z,100796.28
2022-12-14T23:25:59.355Z,100798.19
2022-12-14T23:28:44.218Z,100804.84
2022-12-14T23:31:34.984Z,100809.75
2022-12-14T23:34:19.893Z,100808.16
2022-12-14T23:37:04.616Z,100811.06
2022-12-14T23:39:49.472Z,100799.66
2022-12-14T23:42:34.242Z,100806.44
2022-12-14T23:45:19.172Z,100809.97
2022-12-14T23:48:04.193Z,100816.28
2022-12-14T23:50:49.203Z,100824.31
2022-12-14T23:53:34.198Z,100830.34
2022-12-14T23:56:19.796Z,100832.56
2022-12-14T23:59:04.566Z,100825.44
